Terminal Aerodrome Forecast
Issued by NWS Bismarck, ND

Home | Current Version | Previous Version | Graphics & Text | Print | Product List | Glossary On
Versions: 1 2 3 4 5 6 7 8 9 10 11 12 13 14 15 16 17 18 19 20 21 22 23 24
000
FTUS43 KBIS 231123
TAFBIS
TAF
KBIS 231123Z 2312/2412 09004KT P6SM VCSH OVC070
      TEMPO 2312/2314 6SM -FZRA
     FM232300 36007KT P6SM OVC035
     FM240900 01007KT P6SM SCT035
     FM241100 36006KT P6SM BKN015=

USA.gov is the U.S. government's official web portal to all federal, state and local government web resources and services.